CheckWX is a tool to help pilots better visualize weather data.  It is not intended as a substitute for an official pre-flight weather briefing.

09:23:18 UTC

KGGG TAF
East Texas Regional Airport
Longview, Texas, USA
KGGG 140555Z 1406/1506 15003KT P6SM -RA OVC050 TEMPO 1408/1412 3SM RA BR OVC015 FM141200 00000KT 4SM BR OVC015 TEMPO 1412/1415 2SM -RA OVC015 FM141500 36003KT 2SM BR OVC007

Nov-14@
06:00 UTC

Nov-14 @ 06:00 UTC

Nov-14@
12:00 UTC

Nov-14 @ 12:00 UTC

KGGG 140555Z 1406/1506 15003KT P6SM -RA OVC050
Wind
  • 150° at 3 KTS
Conditions
Light Rain
Cloud Levels
  • Overcast at 5,000' AGL

Nov-14@
08:00 UTC

Nov-14 @ 08:00 UTC

Nov-14@
12:00 UTC

Nov-14 @ 12:00 UTC

TEMPO 1408/1412 3SM RA BR OVC015

Temporary

Temporary Changes expected for less than half the time period

Conditions
Rain, Mist
Cloud Levels
  • Overcast at 1,500' AGL

Nov-14@
12:00 UTC

Nov-14 @ 12:00 UTC

Nov-14@
15:00 UTC

Nov-14 @ 15:00 UTC

FM141200 00000KT 4SM BR OVC015

From

From Standard forecast or significant change

Conditions
Mist
Cloud Levels
  • Overcast at 1,500' AGL

Nov-14@
12:00 UTC

Nov-14 @ 12:00 UTC

Nov-14@
15:00 UTC

Nov-14 @ 15:00 UTC

TEMPO 1412/1415 2SM -RA OVC015

Temporary

Temporary Changes expected for less than half the time period

Conditions
Light Rain
Cloud Levels
  • Overcast at 1,500' AGL

Nov-14@
15:00 UTC

Nov-14 @ 15:00 UTC

Nov-15@
06:00 UTC

Nov-15 @ 06:00 UTC

FM141500 36003KT 2SM BR OVC007

From

From Standard forecast or significant change

Wind
  • 360° at 3 KTS
Conditions
Mist
Cloud Levels
  • Overcast at 700' AGL